sensor_id;sensor_type;location;lat;lon;timestamp;temperature;humidity
26541;DHT22;14206;50.202;10.948;2023-01-23T00:01:25;1.70;96.60
26541;DHT22;14206;50.202;10.948;2023-01-23T00:03:53;1.70;96.60
26541;DHT22;14206;50.202;10.948;2023-01-23T00:06:22;1.70;96.60
26541;DHT22;14206;50.202;10.948;2023-01-23T00:08:49;1.70;96.60
26541;DHT22;14206;50.202;10.948;2023-01-23T00:11:24;1.70;96.60
26541;DHT22;14206;50.202;10.948;2023-01-23T00:13:52;1.70;96.60
26541;DHT22;14206;50.202;10.948;2023-01-23T00:16:21;1.70;96.60
26541;DHT22;14206;50.202;10.948;2023-01-23T00:18:48;1.70;96.60
26541;DHT22;14206;50.202;10.948;2023-01-23T00:21:18;1.80;96.60
26541;DHT22;14206;50.202;10.948;2023-01-23T00:23:50;1.80;96.60
26541;DHT22;14206;50.202;10.948;2023-01-23T00:26:20;1.80;96.60
26541;DHT22;14206;50.202;10.948;2023-01-23T00:28:53;1.80;96.60
26541;DHT22;14206;50.202;10.948;2023-01-23T00:31:24;1.80;96.60
26541;DHT22;14206;50.202;10.948;2023-01-23T00:33:56;1.80;96.60
26541;DHT22;14206;50.202;10.948;2023-01-23T00:36:27;1.80;96.60
26541;DHT22;14206;50.202;10.948;2023-01-23T00:38:55;1.80;96.60
26541;DHT22;14206;50.202;10.948;2023-01-23T00:41:22;1.90;96.60
26541;DHT22;14206;50.202;10.948;2023-01-23T00:43:49;1.90;96.60
26541;DHT22;14206;50.202;10.948;2023-01-23T00:46:24;1.90;96.60
26541;DHT22;14206;50.202;10.948;2023-01-23T00:48:51;1.90;96.60
26541;DHT22;14206;50.202;10.948;2023-01-23T00:51:18;1.90;96.60
26541;DHT22;14206;50.202;10.948;2023-01-23T00:53:45;1.90;96.60
26541;DHT22;14206;50.202;10.948;2023-01-23T00:56:12;1.90;96.60
26541;DHT22;14206;50.202;10.948;2023-01-23T00:58:39;1.90;96.60
26541;DHT22;14206;50.202;10.948;2023-01-23T01:01:13;1.90;96.60
26541;DHT22;14206;50.202;10.948;2023-01-23T01:03:40;1.90;96.60
26541;DHT22;14206;50.202;10.948;2023-01-23T01:06:07;2.00;96.60
26541;DHT22;14206;50.202;10.948;2023-01-23T01:08:34;2.00;96.60
26541;DHT22;14206;50.202;10.948;2023-01-23T01:11:02;2.00;96.60
26541;DHT22;14206;50.202;10.948;2023-01-23T01:13:29;2.10;96.60
26541;DHT22;14206;50.202;10.948;2023-01-23T01:15:57;2.10;96.60
26541;DHT22;14206;50.202;10.948;2023-01-23T01:18:28;2.10;96.60
26541;DHT22;14206;50.202;10.948;2023-01-23T01:20:58;2.10;96.60
26541;DHT22;14206;50.202;10.948;2023-01-23T01:23:26;2.10;96.60
26541;DHT22;14206;50.202;10.948;2023-01-23T01:26:00;2.10;96.60
26541;DHT22;14206;50.202;10.948;2023-01-23T01:28:31;2.10;96.60
26541;DHT22;14206;50.202;10.948;2023-01-23T01:31:07;2.10;96.60
26541;DHT22;14206;50.202;10.948;2023-01-23T01:33:36;2.10;96.60
26541;DHT22;14206;50.202;10.948;2023-01-23T01:36:11;2.10;96.60
26541;DHT22;14206;50.202;10.948;2023-01-23T01:38:38;2.10;96.60
26541;DHT22;14206;50.202;10.948;2023-01-23T01:41:06;2.10;96.60
26541;DHT22;14206;50.202;10.948;2023-01-23T01:43:34;2.10;96.60
26541;DHT22;14206;50.202;10.948;2023-01-23T01:51:24;2.10;96.60
26541;DHT22;14206;50.202;10.948;2023-01-23T01:54:06;2.10;96.60
26541;DHT22;14206;50.202;10.948;2023-01-23T01:56:39;2.10;96.60
26541;DHT22;14206;50.202;10.948;2023-01-23T01:59:07;2.10;96.60
26541;DHT22;14206;50.202;10.948;2023-01-23T02:01:36;2.10;96.60
26541;DHT22;14206;50.202;10.948;2023-01-23T02:04:06;2.10;96.60
26541;DHT22;14206;50.202;10.948;2023-01-23T02:06:36;2.10;96.60
26541;DHT22;14206;50.202;10.948;2023-01-23T02:09:09;2.10;96.60
26541;DHT22;14206;50.202;10.948;2023-01-23T02:11:37;2.00;96.60
26541;DHT22;14206;50.202;10.948;2023-01-23T02:14:05;2.00;96.60
26541;DHT22;14206;50.202;10.948;2023-01-23T02:16:34;2.00;96.60
26541;DHT22;14206;50.202;10.948;2023-01-23T02:19:15;2.00;96.60
26541;DHT22;14206;50.202;10.948;2023-01-23T02:21:47;2.00;96.60
26541;DHT22;14206;50.202;10.948;2023-01-23T02:25:03;2.00;96.60
26541;DHT22;14206;50.202;10.948;2023-01-23T02:27:31;2.00;96.60
26541;DHT22;14206;50.202;10.948;2023-01-23T02:29:58;1.90;96.60
26541;DHT22;14206;50.202;10.948;2023-01-23T02:32:27;1.90;96.60
26541;DHT22;14206;50.202;10.948;2023-01-23T02:34:57;1.90;96.60
26541;DHT22;14206;50.202;10.948;2023-01-23T02:37:28;1.90;96.60
26541;DHT22;14206;50.202;10.948;2023-01-23T02:39:59;1.90;96.60
26541;DHT22;14206;50.202;10.948;2023-01-23T02:42:32;1.90;96.60
26541;DHT22;14206;50.202;10.948;2023-01-23T02:45:00;1.90;96.60
26541;DHT22;14206;50.202;10.948;2023-01-23T02:47:30;1.80;96.60
26541;DHT22;14206;50.202;10.948;2023-01-23T02:49:59;1.80;96.60
26541;DHT22;14206;50.202;10.948;2023-01-23T02:52:27;1.80;96.60
26541;DHT22;14206;50.202;10.948;2023-01-23T02:54:54;1.80;96.60
26541;DHT22;14206;50.202;10.948;2023-01-23T02:57:21;1.80;96.60
26541;DHT22;14206;50.202;10.948;2023-01-23T02:59:48;1.80;96.60
26541;DHT22;14206;50.202;10.948;2023-01-23T03:02:34;1.80;96.60
26541;DHT22;14206;50.202;10.948;2023-01-23T03:05:02;1.80;96.60
26541;DHT22;14206;50.202;10.948;2023-01-23T03:07:29;1.80;96.60
26541;DHT22;14206;50.202;10.948;2023-01-23T03:09:55;1.80;96.60
26541;DHT22;14206;50.202;10.948;2023-01-23T03:12:22;1.70;96.60
26541;DHT22;14206;50.202;10.948;2023-01-23T03:14:49;1.70;96.60
26541;DHT22;14206;50.202;10.948;2023-01-23T03:17:20;1.70;96.60
26541;DHT22;14206;50.202;10.948;2023-01-23T03:19:47;1.60;96.60
26541;DHT22;14206;50.202;10.948;2023-01-23T03:22:14;1.60;96.60
26541;DHT22;14206;50.202;10.948;2023-01-23T03:24:41;1.60;96.60
26541;DHT22;14206;50.202;10.948;2023-01-23T03:27:08;1.50;96.60
26541;DHT22;14206;50.202;10.948;2023-01-23T03:29:40;1.50;96.60
26541;DHT22;14206;50.202;10.948;2023-01-23T03:32:28;1.50;96.60
26541;DHT22;14206;50.202;10.948;2023-01-23T03:34:56;1.40;96.60
26541;DHT22;14206;50.202;10.948;2023-01-23T03:37:24;1.40;96.60
26541;DHT22;14206;50.202;10.948;2023-01-23T03:39:51;1.30;96.60
26541;DHT22;14206;50.202;10.948;2023-01-23T03:42:36;1.20;96.60
26541;DHT22;14206;50.202;10.948;2023-01-23T03:45:10;1.10;96.60
26541;DHT22;14206;50.202;10.948;2023-01-23T03:47:37;1.20;96.60
26541;DHT22;14206;50.202;10.948;2023-01-23T03:50:05;1.20;96.60
26541;DHT22;14206;50.202;10.948;2023-01-23T03:52:36;1.20;96.60
26541;DHT22;14206;50.202;10.948;2023-01-23T03:55:04;1.20;96.60
26541;DHT22;14206;50.202;10.948;2023-01-23T03:57:32;1.30;96.60
26541;DHT22;14206;50.202;10.948;2023-01-23T04:00:08;1.30;96.60
26541;DHT22;14206;50.202;10.948;2023-01-23T04:02:47;1.20;96.60
26541;DHT22;14206;50.202;10.948;2023-01-23T04:05:14;1.20;96.60
26541;DHT22;14206;50.202;10.948;2023-01-23T04:07:42;1.10;96.60
26541;DHT22;14206;50.202;10.948;2023-01-23T04:10:09;1.00;96.60
26541;DHT22;14206;50.202;10.948;2023-01-23T04:12:41;0.90;96.60
26541;DHT22;14206;50.202;10.948;2023-01-23T04:15:09;0.90;96.60
26541;DHT22;14206;50.202;10.948;2023-01-23T04:17:36;0.90;96.60
26541;DHT22;14206;50.202;10.948;2023-01-23T04:20:03;0.90;96.60
26541;DHT22;14206;50.202;10.948;2023-01-23T04:22:31;1.00;96.60
26541;DHT22;14206;50.202;10.948;2023-01-23T04:24:57;1.00;96.60
26541;DHT22;14206;50.202;10.948;2023-01-23T04:27:24;1.10;96.60
26541;DHT22;14206;50.202;10.948;2023-01-23T04:29:53;1.10;96.60
26541;DHT22;14206;50.202;10.948;2023-01-23T04:32:20;1.10;96.60
26541;DHT22;14206;50.202;10.948;2023-01-23T04:34:47;1.10;96.60
26541;DHT22;14206;50.202;10.948;2023-01-23T04:37:15;1.10;96.60
26541;DHT22;14206;50.202;10.948;2023-01-23T04:39:42;1.10;96.60
26541;DHT22;14206;50.202;10.948;2023-01-23T04:42:09;1.10;96.60
26541;DHT22;14206;50.202;10.948;2023-01-23T04:44:47;1.20;96.60
26541;DHT22;14206;50.202;10.948;2023-01-23T04:47:33;1.30;96.60
26541;DHT22;14206;50.202;10.948;2023-01-23T04:50:03;1.40;96.60
26541;DHT22;14206;50.202;10.948;2023-01-23T04:52:33;1.50;96.60
26541;DHT22;14206;50.202;10.948;2023-01-23T04:55:00;1.50;96.60
26541;DHT22;14206;50.202;10.948;2023-01-23T04:57:26;1.60;96.60
26541;DHT22;14206;50.202;10.948;2023-01-23T05:00:01;1.60;96.60
26541;DHT22;14206;50.202;10.948;2023-01-23T05:02:31;1.70;96.60
26541;DHT22;14206;50.202;10.948;2023-01-23T05:04:58;1.60;96.60
26541;DHT22;14206;50.202;10.948;2023-01-23T05:07:25;1.60;96.60
26541;DHT22;14206;50.202;10.948;2023-01-23T05:10:08;1.60;96.60
26541;DHT22;14206;50.202;10.948;2023-01-23T05:12:36;1.60;96.60
26541;DHT22;14206;50.202;10.948;2023-01-23T05:15:03;1.60;96.60
26541;DHT22;14206;50.202;10.948;2023-01-23T05:17:33;1.60;96.60
26541;DHT22;14206;50.202;10.948;2023-01-23T05:20:01;1.60;96.60
26541;DHT22;14206;50.202;10.948;2023-01-23T05:22:28;1.60;96.60
26541;DHT22;14206;50.202;10.948;2023-01-23T05:24:55;1.60;96.60
26541;DHT22;14206;50.202;10.948;2023-01-23T05:27:25;1.50;96.60
26541;DHT22;14206;50.202;10.948;2023-01-23T05:29:52;1.60;96.60
26541;DHT22;14206;50.202;10.948;2023-01-23T05:32:24;1.60;96.60
26541;DHT22;14206;50.202;10.948;2023-01-23T05:35:00;1.60;96.60
26541;DHT22;14206;50.202;10.948;2023-01-23T05:37:29;1.60;96.60
26541;DHT22;14206;50.202;10.948;2023-01-23T05:40:02;1.60;96.60
26541;DHT22;14206;50.202;10.948;2023-01-23T05:42:49;1.70;96.60
26541;DHT22;14206;50.202;10.948;2023-01-23T05:45:34;1.70;96.60
26541;DHT22;14206;50.202;10.948;2023-01-23T05:48:05;1.70;96.60
26541;DHT22;14206;50.202;10.948;2023-01-23T05:50:32;1.80;96.60
26541;DHT22;14206;50.202;10.948;2023-01-23T05:53:01;1.80;96.60
26541;DHT22;14206;50.202;10.948;2023-01-23T05:55:28;1.80;96.60
26541;DHT22;14206;50.202;10.948;2023-01-23T05:57:55;1.80;96.60
26541;DHT22;14206;50.202;10.948;2023-01-23T06:00:31;1.90;96.60
26541;DHT22;14206;50.202;10.948;2023-01-23T06:03:21;1.90;96.60
26541;DHT22;14206;50.202;10.948;2023-01-23T06:06:07;2.00;96.60
26541;DHT22;14206;50.202;10.948;2023-01-23T06:08:33;2.00;96.60
26541;DHT22;14206;50.202;10.948;2023-01-23T06:11:02;2.00;96.60
26541;DHT22;14206;50.202;10.948;2023-01-23T06:13:29;2.00;96.60
26541;DHT22;14206;50.202;10.948;2023-01-23T06:15:56;1.90;96.60
26541;DHT22;14206;50.202;10.948;2023-01-23T06:18:25;1.90;96.60
26541;DHT22;14206;50.202;10.948;2023-01-23T06:20:59;1.90;96.60
26541;DHT22;14206;50.202;10.948;2023-01-23T06:23:27;1.90;96.60
26541;DHT22;14206;50.202;10.948;2023-01-23T06:26:03;2.00;96.60
26541;DHT22;14206;50.202;10.948;2023-01-23T06:28:32;2.00;96.60
26541;DHT22;14206;50.202;10.948;2023-01-23T06:31:00;2.00;96.60
26541;DHT22;14206;50.202;10.948;2023-01-23T06:33:58;2.00;96.60
26541;DHT22;14206;50.202;10.948;2023-01-23T06:36:30;2.00;96.60
26541;DHT22;14206;50.202;10.948;2023-01-23T06:38:57;2.00;96.60
26541;DHT22;14206;50.202;10.948;2023-01-23T06:41:32;2.00;96.60
26541;DHT22;14206;50.202;10.948;2023-01-23T06:44:07;2.00;96.60
26541;DHT22;14206;50.202;10.948;2023-01-23T06:46:34;2.10;96.60
26541;DHT22;14206;50.202;10.948;2023-01-23T06:49:02;2.00;96.60
26541;DHT22;14206;50.202;10.948;2023-01-23T06:51:34;2.00;96.60
26541;DHT22;14206;50.202;10.948;2023-01-23T06:54:24;2.10;96.60
26541;DHT22;14206;50.202;10.948;2023-01-23T06:56:57;2.00;96.60
26541;DHT22;14206;50.202;10.948;2023-01-23T06:59:24;2.00;96.60
26541;DHT22;14206;50.202;10.948;2023-01-23T07:01:51;2.00;96.60
26541;DHT22;14206;50.202;10.948;2023-01-23T07:04:38;2.00;96.60
26541;DHT22;14206;50.202;10.948;2023-01-23T07:07:05;2.00;96.60
26541;DHT22;14206;50.202;10.948;2023-01-23T07:09:33;2.10;96.60
26541;DHT22;14206;50.202;10.948;2023-01-23T07:12:06;2.00;96.60
26541;DHT22;14206;50.202;10.948;2023-01-23T07:14:33;2.00;96.60
26541;DHT22;14206;50.202;10.948;2023-01-23T07:17:00;2.00;96.60
26541;DHT22;14206;50.202;10.948;2023-01-23T07:19:28;1.90;96.60
26541;DHT22;14206;50.202;10.948;2023-01-23T07:21:57;2.00;96.60
26541;DHT22;14206;50.202;10.948;2023-01-23T07:24:26;2.00;96.60
26541;DHT22;14206;50.202;10.948;2023-01-23T07:26:55;2.00;96.60
26541;DHT22;14206;50.202;10.948;2023-01-23T07:29:22;2.00;96.60
26541;DHT22;14206;50.202;10.948;2023-01-23T07:31:49;2.10;96.60
26541;DHT22;14206;50.202;10.948;2023-01-23T07:34:16;2.10;96.60
26541;DHT22;14206;50.202;10.948;2023-01-23T07:36:43;2.10;96.60
26541;DHT22;14206;50.202;10.948;2023-01-23T07:39:09;2.10;96.60
26541;DHT22;14206;50.202;10.948;2023-01-23T07:41:36;2.20;96.60
26541;DHT22;14206;50.202;10.948;2023-01-23T07:44:12;2.30;96.60
26541;DHT22;14206;50.202;10.948;2023-01-23T07:46:39;2.30;96.60
26541;DHT22;14206;50.202;10.948;2023-01-23T07:49:06;2.40;96.60
26541;DHT22;14206;50.202;10.948;2023-01-23T07:51:33;2.40;96.60
26541;DHT22;14206;50.202;10.948;2023-01-23T07:54:00;2.40;96.60
26541;DHT22;14206;50.202;10.948;2023-01-23T07:56:27;2.40;96.60
26541;DHT22;14206;50.202;10.948;2023-01-23T07:58:54;2.40;96.60
26541;DHT22;14206;50.202;10.948;2023-01-23T08:01:23;2.50;96.60
26541;DHT22;14206;50.202;10.948;2023-01-23T08:03:52;2.50;96.20
26541;DHT22;14206;50.202;10.948;2023-01-23T08:06:19;2.60;96.30
26541;DHT22;14206;50.202;10.948;2023-01-23T08:08:49;2.60;96.20
26541;DHT22;14206;50.202;10.948;2023-01-23T08:11:16;2.60;95.90
26541;DHT22;14206;50.202;10.948;2023-01-23T08:13:43;2.70;95.90
26541;DHT22;14206;50.202;10.948;2023-01-23T08:16:14;2.70;95.70
26541;DHT22;14206;50.202;10.948;2023-01-23T08:18:40;2.80;95.70
26541;DHT22;14206;50.202;10.948;2023-01-23T08:21:08;2.90;95.30
26541;DHT22;14206;50.202;10.948;2023-01-23T08:23:35;3.00;95.20
26541;DHT22;14206;50.202;10.948;2023-01-23T08:26:04;3.00;94.60
26541;DHT22;14206;50.202;10.948;2023-01-23T08:28:31;3.10;94.50
26541;DHT22;14206;50.202;10.948;2023-01-23T08:31:00;3.10;94.40
26541;DHT22;14206;50.202;10.948;2023-01-23T08:33:29;3.10;94.20
26541;DHT22;14206;50.202;10.948;2023-01-23T08:35:59;3.20;94.00
26541;DHT22;14206;50.202;10.948;2023-01-23T08:38:26;3.20;93.90
26541;DHT22;14206;50.202;10.948;2023-01-23T08:41:01;3.20;93.80
26541;DHT22;14206;50.202;10.948;2023-01-23T08:43:41;3.20;93.70
26541;DHT22;14206;50.202;10.948;2023-01-23T08:46:09;3.20;93.40
26541;DHT22;14206;50.202;10.948;2023-01-23T08:48:36;3.20;93.00
26541;DHT22;14206;50.202;10.948;2023-01-23T08:51:07;3.20;93.20
26541;DHT22;14206;50.202;10.948;2023-01-23T08:53:35;3.10;93.00
26541;DHT22;14206;50.202;10.948;2023-01-23T08:56:09;3.20;93.20
26541;DHT22;14206;50.202;10.948;2023-01-23T08:58:36;3.40;93.20
26541;DHT22;14206;50.202;10.948;2023-01-23T09:01:03;3.50;92.80
26541;DHT22;14206;50.202;10.948;2023-01-23T09:03:30;3.70;91.80
26541;DHT22;14206;50.202;10.948;2023-01-23T09:06:00;3.70;91.80
26541;DHT22;14206;50.202;10.948;2023-01-23T09:08:27;3.70;91.90
26541;DHT22;14206;50.202;10.948;2023-01-23T09:10:59;3.80;91.70
26541;DHT22;14206;50.202;10.948;2023-01-23T09:13:26;3.90;91.70
26541;DHT22;14206;50.202;10.948;2023-01-23T09:15:53;4.00;90.70
26541;DHT22;14206;50.202;10.948;2023-01-23T09:18:20;4.00;91.00
26541;DHT22;14206;50.202;10.948;2023-01-23T09:20:48;4.10;90.90
26541;DHT22;14206;50.202;10.948;2023-01-23T09:23:15;4.20;90.50
26541;DHT22;14206;50.202;10.948;2023-01-23T09:25:42;4.20;90.20
26541;DHT22;14206;50.202;10.948;2023-01-23T09:28:08;4.30;90.30
26541;DHT22;14206;50.202;10.948;2023-01-23T09:30:35;4.30;89.90
26541;DHT22;14206;50.202;10.948;2023-01-23T09:33:03;4.30;90.10
26541;DHT22;14206;50.202;10.948;2023-01-23T09:35:30;4.30;90.30
26541;DHT22;14206;50.202;10.948;2023-01-23T09:37:57;4.50;89.90
26541;DHT22;14206;50.202;10.948;2023-01-23T09:40:30;4.50;89.60
26541;DHT22;14206;50.202;10.948;2023-01-23T09:43:02;4.70;89.00
26541;DHT22;14206;50.202;10.948;2023-01-23T09:45:31;4.70;89.20
26541;DHT22;14206;50.202;10.948;2023-01-23T09:48:25;4.80;89.20
26541;DHT22;14206;50.202;10.948;2023-01-23T09:50:56;4.90;89.00
26541;DHT22;14206;50.202;10.948;2023-01-23T09:53:33;5.00;87.70
26541;DHT22;14206;50.202;10.948;2023-01-23T09:56:10;5.10;87.70
26541;DHT22;14206;50.202;10.948;2023-01-23T09:59:11;5.20;87.80
26541;DHT22;14206;50.202;10.948;2023-01-23T10:01:39;5.30;87.80
26541;DHT22;14206;50.202;10.948;2023-01-23T10:04:10;5.50;87.60
26541;DHT22;14206;50.202;10.948;2023-01-23T10:06:57;5.70;86.20
26541;DHT22;14206;50.202;10.948;2023-01-23T10:09:33;6.10;86.20
26541;DHT22;14206;50.202;10.948;2023-01-23T10:15:24;7.00;83.60
26541;DHT22;14206;50.202;10.948;2023-01-23T10:18:06;7.50;82.40
26541;DHT22;14206;50.202;10.948;2023-01-23T10:25:50;8.60;79.00
26541;DHT22;14206;50.202;10.948;2023-01-23T10:31:21;8.70;78.50
26541;DHT22;14206;50.202;10.948;2023-01-23T10:33:55;8.70;78.10
26541;DHT22;14206;50.202;10.948;2023-01-23T10:36:38;8.60;77.60
26541;DHT22;14206;50.202;10.948;2023-01-23T10:39:49;8.30;78.20
26541;DHT22;14206;50.202;10.948;2023-01-23T10:42:22;8.10;78.50
26541;DHT22;14206;50.202;10.948;2023-01-23T10:44:51;7.90;78.90
26541;DHT22;14206;50.202;10.948;2023-01-23T10:47:43;7.70;79.70
26541;DHT22;14206;50.202;10.948;2023-01-23T10:50:33;7.50;80.50
26541;DHT22;14206;50.202;10.948;2023-01-23T10:53:20;7.20;80.50
26541;DHT22;14206;50.202;10.948;2023-01-23T10:55:47;6.90;81.40
26541;DHT22;14206;50.202;10.948;2023-01-23T10:58:36;6.80;81.80
26541;DHT22;14206;50.202;10.948;2023-01-23T11:01:04;6.70;82.40
26541;DHT22;14206;50.202;10.948;2023-01-23T11:03:34;6.60;82.30
26541;DHT22;14206;50.202;10.948;2023-01-23T11:06:08;6.50;82.90
26541;DHT22;14206;50.202;10.948;2023-01-23T11:08:57;6.50;83.10
26541;DHT22;14206;50.202;10.948;2023-01-23T11:11:28;6.60;82.80
26541;DHT22;14206;50.202;10.948;2023-01-23T11:14:14;6.50;83.00
26541;DHT22;14206;50.202;10.948;2023-01-23T11:16:42;6.30;83.50
26541;DHT22;14206;50.202;10.948;2023-01-23T11:19:11;6.20;83.60
26541;DHT22;14206;50.202;10.948;2023-01-23T11:21:53;6.10;83.30
26541;DHT22;14206;50.202;10.948;2023-01-23T11:27:18;6.10;84.20
26541;DHT22;14206;50.202;10.948;2023-01-23T11:33:13;5.80;85.00
26541;DHT22;14206;50.202;10.948;2023-01-23T11:35:57;5.70;85.50
26541;DHT22;14206;50.202;10.948;2023-01-23T11:38:29;5.70;85.50
26541;DHT22;14206;50.202;10.948;2023-01-23T11:40:58;5.60;85.90
26541;DHT22;14206;50.202;10.948;2023-01-23T11:43:25;5.60;86.10
26541;DHT22;14206;50.202;10.948;2023-01-23T11:48:50;5.40;86.30
26541;DHT22;14206;50.202;10.948;2023-01-23T11:54:00;5.10;87.00
26541;DHT22;14206;50.202;10.948;2023-01-23T11:56:54;4.90;87.90
26541;DHT22;14206;50.202;10.948;2023-01-23T11:59:44;4.80;88.20
26541;DHT22;14206;50.202;10.948;2023-01-23T12:02:41;4.70;88.20
26541;DHT22;14206;50.202;10.948;2023-01-23T12:08:27;4.60;89.10
26541;DHT22;14206;50.202;10.948;2023-01-23T12:11:16;4.70;89.20
26541;DHT22;14206;50.202;10.948;2023-01-23T12:14:03;4.70;89.00
26541;DHT22;14206;50.202;10.948;2023-01-23T12:27:43;4.50;89.30
26541;DHT22;14206;50.202;10.948;2023-01-23T12:30:26;4.60;89.60
26541;DHT22;14206;50.202;10.948;2023-01-23T12:33:19;4.50;89.60
26541;DHT22;14206;50.202;10.948;2023-01-23T12:46:25;4.60;89.70
26541;DHT22;14206;50.202;10.948;2023-01-23T12:49:29;4.60;89.80
26541;DHT22;14206;50.202;10.948;2023-01-23T12:52:06;4.60;89.40
26541;DHT22;14206;50.202;10.948;2023-01-23T12:54:42;4.60;89.70
26541;DHT22;14206;50.202;10.948;2023-01-23T12:57:11;4.50;89.90
26541;DHT22;14206;50.202;10.948;2023-01-23T12:59:59;4.50;89.90
26541;DHT22;14206;50.202;10.948;2023-01-23T13:14:30;4.30;90.80
26541;DHT22;14206;50.202;10.948;2023-01-23T13:23:19;4.20;91.40
26541;DHT22;14206;50.202;10.948;2023-01-23T13:25:47;4.20;91.50
26541;DHT22;14206;50.202;10.948;2023-01-23T13:28:41;4.30;91.40
26541;DHT22;14206;50.202;10.948;2023-01-23T13:31:45;4.30;91.40
26541;DHT22;14206;50.202;10.948;2023-01-23T13:34:33;4.40;91.50
26541;DHT22;14206;50.202;10.948;2023-01-23T13:37:32;4.40;91.00
26541;DHT22;14206;50.202;10.948;2023-01-23T13:40:17;4.60;90.70
26541;DHT22;14206;50.202;10.948;2023-01-23T13:42:44;4.70;90.40
26541;DHT22;14206;50.202;10.948;2023-01-23T13:45:25;4.80;90.40
26541;DHT22;14206;50.202;10.948;2023-01-23T13:51:16;5.00;89.60
26541;DHT22;14206;50.202;10.948;2023-01-23T13:53:58;5.10;89.10
26541;DHT22;14206;50.202;10.948;2023-01-23T13:56:57;5.20;88.90
26541;DHT22;14206;50.202;10.948;2023-01-23T13:59:41;5.10;88.80
26541;DHT22;14206;50.202;10.948;2023-01-23T14:02:33;5.10;88.70
26541;DHT22;14206;50.202;10.948;2023-01-23T14:05:34;5.00;89.00
26541;DHT22;14206;50.202;10.948;2023-01-23T14:08:22;4.90;89.30
26541;DHT22;14206;50.202;10.948;2023-01-23T14:11:12;4.70;89.60
26541;DHT22;14206;50.202;10.948;2023-01-23T14:13:54;4.60;89.60
26541;DHT22;14206;50.202;10.948;2023-01-23T14:16:54;4.50;89.90
26541;DHT22;14206;50.202;10.948;2023-01-23T14:19:46;4.50;90.50
26541;DHT22;14206;50.202;10.948;2023-01-23T14:22:29;4.50;90.50
26541;DHT22;14206;50.202;10.948;2023-01-23T14:24:56;4.50;90.20
26541;DHT22;14206;50.202;10.948;2023-01-23T14:27:33;4.50;90.50
26541;DHT22;14206;50.202;10.948;2023-01-23T14:30:20;4.50;90.50
26541;DHT22;14206;50.202;10.948;2023-01-23T14:32:47;4.60;90.20
26541;DHT22;14206;50.202;10.948;2023-01-23T14:35:17;4.60;90.40
26541;DHT22;14206;50.202;10.948;2023-01-23T14:37:45;4.70;90.10
26541;DHT22;14206;50.202;10.948;2023-01-23T14:40:16;4.70;90.30
26541;DHT22;14206;50.202;10.948;2023-01-23T14:43:05;4.70;89.90
26541;DHT22;14206;50.202;10.948;2023-01-23T14:45:36;4.60;90.20
26541;DHT22;14206;50.202;10.948;2023-01-23T14:48:04;4.60;90.50
26541;DHT22;14206;50.202;10.948;2023-01-23T14:50:33;4.60;90.20
26541;DHT22;14206;50.202;10.948;2023-01-23T14:53:21;4.50;90.40
26541;DHT22;14206;50.202;10.948;2023-01-23T14:55:48;4.50;90.80
26541;DHT22;14206;50.202;10.948;2023-01-23T14:58:23;4.50;90.60
26541;DHT22;14206;50.202;10.948;2023-01-23T15:00:52;4.40;90.60
26541;DHT22;14206;50.202;10.948;2023-01-23T15:04:01;4.30;91.10
26541;DHT22;14206;50.202;10.948;2023-01-23T15:06:32;4.30;91.30
26541;DHT22;14206;50.202;10.948;2023-01-23T15:09:13;4.30;91.30
26541;DHT22;14206;50.202;10.948;2023-01-23T15:11:41;4.30;91.40
26541;DHT22;14206;50.202;10.948;2023-01-23T15:14:38;4.30;91.70
26541;DHT22;14206;50.202;10.948;2023-01-23T15:17:11;4.30;91.70
26541;DHT22;14206;50.202;10.948;2023-01-23T15:19:39;4.20;91.70
26541;DHT22;14206;50.202;10.948;2023-01-23T15:22:17;4.20;91.70
26541;DHT22;14206;50.202;10.948;2023-01-23T15:24:45;4.10;92.20
26541;DHT22;14206;50.202;10.948;2023-01-23T15:27:30;4.10;92.40
26541;DHT22;14206;50.202;10.948;2023-01-23T15:33:02;4.00;92.60
26541;DHT22;14206;50.202;10.948;2023-01-23T15:35:36;4.00;92.60
26541;DHT22;14206;50.202;10.948;2023-01-23T15:38:13;3.90;92.50
26541;DHT22;14206;50.202;10.948;2023-01-23T15:40:41;3.90;93.10
26541;DHT22;14206;50.202;10.948;2023-01-23T15:43:14;3.80;93.20
26541;DHT22;14206;50.202;10.948;2023-01-23T15:45:43;3.80;93.40
26541;DHT22;14206;50.202;10.948;2023-01-23T15:48:10;3.80;93.50
26541;DHT22;14206;50.202;10.948;2023-01-23T15:50:37;3.80;93.60
26541;DHT22;14206;50.202;10.948;2023-01-23T15:53:10;3.70;93.70
26541;DHT22;14206;50.202;10.948;2023-01-23T15:55:38;3.70;93.80
26541;DHT22;14206;50.202;10.948;2023-01-23T15:58:05;3.60;94.00
26541;DHT22;14206;50.202;10.948;2023-01-23T16:00:31;3.50;94.40
26541;DHT22;14206;50.202;10.948;2023-01-23T16:02:58;3.50;94.60
26541;DHT22;14206;50.202;10.948;2023-01-23T16:05:29;3.40;94.80
26541;DHT22;14206;50.202;10.948;2023-01-23T16:07:57;3.40;94.90
26541;DHT22;14206;50.202;10.948;2023-01-23T16:10:34;3.40;95.00
26541;DHT22;14206;50.202;10.948;2023-01-23T16:13:01;3.40;95.30
26541;DHT22;14206;50.202;10.948;2023-01-23T16:15:34;3.40;95.50
26541;DHT22;14206;50.202;10.948;2023-01-23T16:18:03;3.40;95.40
26541;DHT22;14206;50.202;10.948;2023-01-23T16:20:38;3.40;95.60
26541;DHT22;14206;50.202;10.948;2023-01-23T16:23:18;3.40;95.60
26541;DHT22;14206;50.202;10.948;2023-01-23T16:25:45;3.30;95.70
26541;DHT22;14206;50.202;10.948;2023-01-23T16:28:14;3.30;95.70
26541;DHT22;14206;50.202;10.948;2023-01-23T16:30:42;3.30;95.80
26541;DHT22;14206;50.202;10.948;2023-01-23T16:33:09;3.20;95.90
26541;DHT22;14206;50.202;10.948;2023-01-23T16:35:36;3.20;96.00
26541;DHT22;14206;50.202;10.948;2023-01-23T16:38:04;3.20;96.10
26541;DHT22;14206;50.202;10.948;2023-01-23T16:40:32;3.20;96.10
26541;DHT22;14206;50.202;10.948;2023-01-23T16:43:00;3.20;96.10
26541;DHT22;14206;50.202;10.948;2023-01-23T16:45:30;3.20;96.30
26541;DHT22;14206;50.202;10.948;2023-01-23T16:47:58;3.10;96.30
26541;DHT22;14206;50.202;10.948;2023-01-23T16:50:28;3.10;96.60
26541;DHT22;14206;50.202;10.948;2023-01-23T16:55:40;3.10;96.60
26541;DHT22;14206;50.202;10.948;2023-01-23T16:58:13;3.00;96.50
26541;DHT22;14206;50.202;10.948;2023-01-23T17:00:41;3.00;96.40
26541;DHT22;14206;50.202;10.948;2023-01-23T17:03:09;3.00;96.60
26541;DHT22;14206;50.202;10.948;2023-01-23T17:05:36;3.00;96.60
26541;DHT22;14206;50.202;10.948;2023-01-23T17:08:20;3.00;96.60
26541;DHT22;14206;50.202;10.948;2023-01-23T17:10:50;3.00;96.50
26541;DHT22;14206;50.202;10.948;2023-01-23T17:13:19;3.00;96.60
26541;DHT22;14206;50.202;10.948;2023-01-23T17:15:48;3.00;96.40
26541;DHT22;14206;50.202;10.948;2023-01-23T17:18:22;2.90;96.60
26541;DHT22;14206;50.202;10.948;2023-01-23T17:20:49;2.90;96.60
26541;DHT22;14206;50.202;10.948;2023-01-23T17:23:16;2.90;96.60
26541;DHT22;14206;50.202;10.948;2023-01-23T17:25:43;2.90;96.60